Time;durP1;ratioP1;P1;durP2;ratioP2;P2;SDS_P1;SDS_P2;PMS_P1;PMS_P2;Temp;Humidity;BMP_temperature;BMP_pressure;BME280_temperature;BME280_humidity;BME280_pressure;Samples;Min_cycle;Max_cycle;Signal;HPM_P1;HPM_P2
2020/12/19 00:00:11;;;;;;;10.80;8.77;;;9.60;68.20;;;;;;2107842;28;20342;-73
2020/12/19 00:01:11;;;;;;;11.90;9.40;;;9.60;68.30;;;;;;2104493;28;20108;-74
2020/12/19 00:02:12;;;;;;;11.80;9.13;;;9.60;68.30;;;;;;2111618;28;20205;-74
2020/12/19 00:03:13;;;;;;;14.02;9.45;;;9.60;68.40;;;;;;2113668;28;20023;-74
2020/12/19 00:04:14;;;;;;;13.52;9.60;;;9.60;68.40;;;;;;2113848;28;20469;-74
2020/12/19 00:05:15;;;;;;;12.60;9.60;;;9.60;68.50;;;;;;2104783;28;20090;-74
2020/12/19 00:06:15;;;;;;;13.25;9.80;;;9.60;68.60;;;;;;2104938;28;20036;-74
2020/12/19 00:07:18;;;;;;;12.07;9.27;;;9.60;68.60;;;;;;2114357;27;20065;-74
2020/12/19 00:08:18;;;;;;;12.55;9.25;;;9.60;68.70;;;;;;2113980;28;20139;-74
2020/12/19 00:09:19;;;;;;;11.98;9.18;;;9.60;68.60;;;;;;2113902;28;20366;-74
2020/12/19 00:10:20;;;;;;;11.18;9.40;;;9.60;68.70;;;;;;2112730;28;20063;-73
2020/12/19 00:11:20;;;;;;;12.18;8.90;;;9.60;68.70;;;;;;2113569;28;20456;-74
2020/12/19 00:12:22;;;;;;;11.02;9.02;;;9.60;68.80;;;;;;2113945;28;20110;-73
2020/12/19 00:13:22;;;;;;;13.48;9.90;;;9.60;68.70;;;;;;2114022;28;20440;-73
2020/12/19 00:14:24;;;;;;;10.45;8.95;;;9.60;68.70;;;;;;2113701;28;20027;-74
2020/12/19 00:15:25;;;;;;;12.57;9.90;;;9.60;68.80;;;;;;2114542;28;20026;-74
2020/12/19 00:16:29;;;;;;;12.10;9.40;;;9.50;68.70;;;;;;2113444;28;20529;-74
2020/12/19 00:17:29;;;;;;;14.95;10.00;;;9.50;68.70;;;;;;2113899;28;20055;-73
2020/12/19 00:18:30;;;;;;;10.82;9.02;;;9.50;68.70;;;;;;2113621;28;20046;-74
2020/12/19 00:19:31;;;;;;;12.35;9.02;;;9.50;69.40;;;;;;2114087;28;20054;-74
2020/12/19 00:20:31;;;;;;;13.75;10.35;;;9.50;68.70;;;;;;2113785;28;20438;-73
2020/12/19 00:21:33;;;;;;;12.20;9.80;;;9.50;68.70;;;;;;2113771;28;20016;-73
2020/12/19 00:22:34;;;;;;;12.13;9.43;;;9.50;68.70;;;;;;2114022;28;20032;-73
2020/12/19 00:23:35;;;;;;;11.40;9.13;;;9.50;68.70;;;;;;2113296;28;20038;-73
2020/12/19 00:24:35;;;;;;;11.40;8.88;;;9.50;68.70;;;;;;2113624;28;20037;-73
2020/12/19 00:25:36;;;;;;;11.52;9.05;;;9.50;68.70;;;;;;2114301;28;20555;-73
2020/12/19 00:26:38;;;;;;;14.82;9.75;;;9.50;68.70;;;;;;2113637;28;20020;-73
2020/12/19 00:27:39;;;;;;;14.93;10.15;;;9.50;68.70;;;;;;2113847;28;20080;-73
2020/12/19 00:28:40;;;;;;;13.98;9.88;;;9.50;68.70;;;;;;2113074;28;20031;-72
2020/12/19 00:29:41;;;;;;;12.35;8.85;;;9.50;68.70;;;;;;2113713;28;20085;-73
2020/12/19 00:30:41;;;;;;;11.00;9.57;;;9.50;68.70;;;;;;2113512;28;20415;-72
2020/12/19 00:31:42;;;;;;;11.82;9.77;;;9.50;68.70;;;;;;2113466;28;20043;-73
2020/12/19 00:32:43;;;;;;;13.35;9.88;;;9.40;68.70;;;;;;2113903;28;20099;-73
2020/12/19 00:33:44;;;;;;;12.30;9.15;;;9.40;68.70;;;;;;2113531;28;20028;-74
2020/12/19 00:34:45;;;;;;;12.52;10.10;;;9.40;68.70;;;;;;2113588;28;20052;-73
2020/12/19 00:35:45;;;;;;;12.05;9.38;;;9.40;68.80;;;;;;2104009;28;20028;-73
2020/12/19 00:36:46;;;;;;;11.68;9.55;;;9.40;68.70;;;;;;2105018;28;20040;-73
2020/12/19 00:37:46;;;;;;;12.65;9.85;;;9.40;68.70;;;;;;2113839;28;20543;-73
2020/12/19 00:38:48;;;;;;;11.93;9.50;;;9.40;68.90;;;;;;2113067;28;20028;-73
2020/12/19 00:39:48;;;;;;;12.40;9.77;;;9.40;69.50;;;;;;2104810;28;20024;-73
2020/12/19 00:40:49;;;;;;;12.15;9.38;;;9.40;68.80;;;;;;2105181;28;20020;-73
2020/12/19 00:41:49;;;;;;;11.73;9.80;;;9.40;68.80;;;;;;2114273;28;20473;-73
2020/12/19 00:42:50;;;;;;;13.02;9.63;;;9.40;68.80;;;;;;2113763;27;20511;-73
2020/12/19 00:43:51;;;;;;;12.15;9.00;;;9.30;68.80;;;;;;2113398;28;20160;-73
2020/12/19 00:44:51;;;;;;;11.43;9.32;;;9.40;68.90;;;;;;2113671;28;20477;-72
2020/12/19 00:45:52;;;;;;;11.43;9.25;;;9.40;68.90;;;;;;2112699;28;20020;-73
2020/12/19 00:46:53;;;;;;;13.02;9.27;;;9.40;68.90;;;;;;2113169;28;20098;-73
2020/12/19 00:47:53;;;;;;;14.80;10.15;;;9.30;68.80;;;;;;2114441;28;20015;-73
2020/12/19 00:48:54;;;;;;;11.93;8.43;;;9.30;68.90;;;;;;2112788;28;20043;-73
2020/12/19 00:49:54;;;;;;;10.55;9.45;;;9.30;68.90;;;;;;2105316;28;20056;-73
2020/12/19 00:50:55;;;;;;;14.25;10.13;;;9.30;69.00;;;;;;2103659;28;20098;-73
2020/12/19 00:51:55;;;;;;;12.43;9.90;;;9.30;69.00;;;;;;2113443;28;20043;-73
2020/12/19 00:52:56;;;;;;;14.45;9.88;;;9.30;69.00;;;;;;2112514;28;20039;-73
2020/12/19 00:53:56;;;;;;;14.20;9.57;;;9.30;69.00;;;;;;2113282;28;20057;-73
2020/12/19 00:54:57;;;;;;;14.45;10.25;;;9.30;69.10;;;;;;2113719;28;20019;-73
2020/12/19 00:55:58;;;;;;;14.70;9.52;;;9.30;69.10;;;;;;2113731;28;20034;-73
2020/12/19 00:56:58;;;;;;;13.13;9.98;;;9.30;69.10;;;;;;2113995;28;20055;-72
2020/12/19 00:58:00;;;;;;;11.98;9.43;;;9.30;69.20;;;;;;2104848;28;20027;-73
2020/12/19 00:59:01;;;;;;;11.82;9.57;;;9.30;69.20;;;;;;2104466;28;20062;-73
2020/12/19 01:00:05;;;;;;;14.73;9.25;;;9.30;69.20;;;;;;2113921;28;20539;-73
2020/12/19 01:01:06;;;;;;;14.05;9.90;;;9.30;69.30;;;;;;2112814;28;20098;-73
2020/12/19 01:02:06;;;;;;;14.88;10.23;;;9.30;69.30;;;;;;2105302;28;20024;-73
2020/12/19 01:03:07;;;;;;;12.65;9.75;;;9.30;69.30;;;;;;2104516;28;20052;-73
2020/12/19 01:04:07;;;;;;;11.35;9.10;;;9.30;69.30;;;;;;2113673;28;20114;-73
2020/12/19 01:05:09;;;;;;;12.65;9.43;;;9.30;69.30;;;;;;2114222;28;20024;-73
2020/12/19 01:06:14;;;;;;;12.02;9.27;;;9.30;69.30;;;;;;2112192;28;20415;-73
2020/12/19 01:07:15;;;;;;;12.82;10.05;;;9.20;69.30;;;;;;2104927;28;20473;-73
2020/12/19 01:08:15;;;;;;;12.43;9.05;;;9.30;69.30;;;;;;2104787;28;20013;-73
2020/12/19 01:09:16;;;;;;;11.57;9.18;;;9.30;69.30;;;;;;2112003;28;20066;-72
2020/12/19 01:10:16;;;;;;;12.68;9.68;;;9.20;69.20;;;;;;2113559;28;20497;-73
2020/12/19 01:11:18;;;;;;;13.93;10.05;;;9.20;69.20;;;;;;2113383;28;20050;-73
2020/12/19 01:12:19;;;;;;;12.65;9.35;;;9.20;69.20;;;;;;2112600;28;20027;-73
2020/12/19 01:13:19;;;;;;;16.20;10.00;;;9.30;69.30;;;;;;2113705;28;20095;-72
2020/12/19 01:14:20;;;;;;;13.20;9.75;;;9.20;69.30;;;;;;2113246;28;20031;-71
2020/12/19 01:15:20;;;;;;;13.25;9.48;;;9.20;69.20;;;;;;2113676;28;20031;-74
2020/12/19 01:16:24;;;;;;;12.75;9.68;;;9.20;69.30;;;;;;2112120;28;20040;-72
2020/12/19 01:17:25;;;;;;;11.32;9.55;;;9.20;69.20;;;;;;2113477;28;20434;-73
2020/12/19 01:18:25;;;;;;;14.88;9.95;;;9.20;69.20;;;;;;2113388;28;20032;-72
2020/12/19 01:19:26;;;;;;;11.80;9.65;;;9.20;69.20;;;;;;2104459;28;20073;-72
2020/12/19 01:20:26;;;;;;;12.82;9.63;;;9.20;69.20;;;;;;2104427;28;20039;-72
2020/12/19 01:21:28;;;;;;;11.70;9.43;;;9.20;69.10;;;;;;2113068;28;20036;-72
2020/12/19 01:22:28;;;;;;;12.20;9.95;;;9.20;69.20;;;;;;2113334;28;20032;-72
2020/12/19 01:23:29;;;;;;;12.68;9.60;;;9.20;69.20;;;;;;2113265;28;20034;-75
2020/12/19 01:24:30;;;;;;;14.60;10.10;;;9.20;69.20;;;;;;2104682;28;20515;-75
2020/12/19 01:25:30;;;;;;;11.52;9.70;;;9.20;69.20;;;;;;2105029;28;20092;-72
2020/12/19 01:26:31;;;;;;;12.05;9.45;;;9.10;69.20;;;;;;2113591;28;20108;-74
2020/12/19 01:27:32;;;;;;;12.63;9.98;;;9.10;69.20;;;;;;2113167;28;20028;-74
2020/12/19 01:28:35;;;;;;;13.38;9.90;;;9.10;69.10;;;;;;2103992;28;20048;-75
2020/12/19 01:29:36;;;;;;;13.32;10.00;;;9.10;69.20;;;;;;2100976;28;20073;-73
2020/12/19 01:30:38;;;;;;;11.30;9.55;;;9.10;69.20;;;;;;2113544;28;20443;-75
2020/12/19 01:31:38;;;;;;;13.30;9.25;;;9.10;69.20;;;;;;2103772;28;20028;-73
2020/12/19 01:32:39;;;;;;;13.15;9.85;;;9.10;69.20;;;;;;2104359;28;20074;-73
2020/12/19 01:33:39;;;;;;;14.35;9.77;;;9.10;69.30;;;;;;2112906;28;20027;-73
2020/12/19 01:34:40;;;;;;;13.52;9.95;;;9.10;69.30;;;;;;2113358;28;20038;-74
2020/12/19 01:35:41;;;;;;;13.77;10.63;;;9.10;69.40;;;;;;2112780;28;20035;-73
2020/12/19 01:36:41;;;;;;;12.70;9.98;;;9.10;69.40;;;;;;2113285;28;20024;-73
2020/12/19 01:37:42;;;;;;;14.35;9.80;;;9.10;69.40;;;;;;2104623;28;20024;-73
2020/12/19 01:38:43;;;;;;;12.70;10.00;;;9.10;69.40;;;;;;2103317;28;20143;-73
2020/12/19 01:39:44;;;;;;;12.05;9.93;;;9.10;69.40;;;;;;2113632;28;20432;-73
2020/12/19 01:40:49;;;;;;;12.95;10.32;;;9.10;69.50;;;;;;2112885;28;20039;-73
2020/12/19 01:41:52;;;;;;;10.40;8.73;;;9.10;69.60;;;;;;2113175;28;20039;-74
2020/12/19 01:42:53;;;;;;;11.50;9.20;;;9.10;69.60;;;;;;2113388;28;20450;-73
2020/12/19 01:43:55;;;;;;;11.18;9.73;;;9.10;69.50;;;;;;2113050;28;20027;-73
2020/12/19 01:44:56;;;;;;;13.98;9.43;;;9.00;69.50;;;;;;2113133;28;21018;-73
2020/12/19 01:45:58;;;;;;;12.57;10.27;;;9.00;69.50;;;;;;2113420;28;20047;-73
2020/12/19 01:47:01;;;;;;;13.57;9.38;;;9.00;69.50;;;;;;2112095;28;20131;-73
2020/12/19 01:48:08;;;;;;;12.45;9.60;;;9.10;69.60;;;;;;2113199;28;21236;-73
2020/12/19 01:49:09;;;;;;;12.30;9.13;;;9.00;69.60;;;;;;2112893;28;20068;-73
2020/12/19 01:50:10;;;;;;;12.57;9.82;;;9.10;69.50;;;;;;2112767;28;20029;-74
2020/12/19 01:51:12;;;;;;;11.68;9.35;;;9.00;69.50;;;;;;2103523;28;20016;-74
2020/12/19 01:52:14;;;;;;;12.85;9.82;;;9.00;69.50;;;;;;2104796;28;20525;-73
2020/12/19 01:53:24;;;;;;;12.35;9.38;;;9.00;69.50;;;;;;2112155;28;20048;-74
2020/12/19 01:54:25;;;;;;;12.68;9.07;;;9.00;69.60;;;;;;2113500;28;20141;-73
2020/12/19 01:55:26;;;;;;;16.10;9.80;;;9.00;69.40;;;;;;2113762;28;20473;-74
2020/12/19 01:56:44;;;;;;;10.73;9.02;;;9.00;69.40;;;;;;2104548;28;20058;-73
2020/12/19 01:57:45;;;;;;;11.82;8.25;;;9.00;69.70;;;;;;2097816;28;20039;-73
2020/12/19 01:58:46;;;;;;;11.30;8.98;;;9.00;69.40;;;;;;2104018;28;20033;-73
2020/12/19 01:59:46;;;;;;;11.95;8.88;;;9.00;69.40;;;;;;2113304;28;20032;-74
2020/12/19 02:00:47;;;;;;;13.27;9.68;;;9.00;69.30;;;;;;2112504;28;20110;-74
2020/12/19 02:01:49;;;;;;;12.90;9.45;;;9.00;69.30;;;;;;2103450;28;20033;-73
2020/12/19 02:02:50;;;;;;;11.27;9.68;;;9.00;69.30;;;;;;2103961;28;20028;-73
2020/12/19 02:03:50;;;;;;;14.23;9.93;;;9.00;69.30;;;;;;2113242;28;20539;-73
2020/12/19 02:04:53;;;;;;;11.88;9.38;;;9.00;69.40;;;;;;2113150;28;20102;-73
2020/12/19 02:05:55;;;;;;;13.68;9.60;;;9.00;69.40;;;;;;2112504;28;20123;-73
2020/12/19 02:06:57;;;;;;;13.82;9.55;;;9.00;69.40;;;;;;2112539;28;20043;-73
2020/12/19 02:07:58;;;;;;;12.40;9.65;;;8.90;69.30;;;;;;2113201;28;20433;-74
2020/12/19 02:08:58;;;;;;;12.27;10.05;;;8.90;69.30;;;;;;2104120;28;20032;-73
2020/12/19 02:10:00;;;;;;;13.20;9.32;;;8.90;69.30;;;;;;2103818;28;20012;-73
2020/12/19 02:11:02;;;;;;;12.15;9.68;;;8.90;69.30;;;;;;2111663;28;20016;-73
2020/12/19 02:12:03;;;;;;;12.13;9.07;;;8.90;69.30;;;;;;2113461;28;20394;-73
2020/12/19 02:13:05;;;;;;;12.65;9.35;;;8.90;69.20;;;;;;2112268;28;20517;-73
2020/12/19 02:14:09;;;;;;;11.32;9.65;;;8.90;69.20;;;;;;2113011;28;20031;-73
2020/12/19 02:15:10;;;;;;;10.90;8.82;;;8.90;69.20;;;;;;2103646;28;20034;-73
2020/12/19 02:16:20;;;;;;;12.75;10.20;;;8.90;69.30;;;;;;2102899;28;20082;-73
2020/12/19 02:17:20;;;;;;;13.20;9.93;;;8.90;69.40;;;;;;2113744;28;20038;-74
2020/12/19 02:18:21;;;;;;;12.15;9.10;;;8.90;69.30;;;;;;2103809;28;20106;-73
2020/12/19 02:19:22;;;;;;;15.35;9.93;;;8.90;69.40;;;;;;2103847;28;20070;-73
2020/12/19 02:20:22;;;;;;;13.52;10.68;;;8.80;69.30;;;;;;2113265;28;20106;-73
2020/12/19 02:21:23;;;;;;;12.10;9.02;;;8.80;69.30;;;;;;2112473;28;20027;-74
2020/12/19 02:22:23;;;;;;;14.20;10.40;;;8.80;69.40;;;;;;2112845;28;20031;-73
2020/12/19 02:23:24;;;;;;;12.68;9.55;;;8.80;69.40;;;;;;2112960;28;20027;-73
2020/12/19 02:24:25;;;;;;;13.65;10.18;;;8.80;69.40;;;;;;2112728;28;20069;-73
2020/12/19 02:25:39;;;;;;;12.90;9.80;;;8.80;69.40;;;;;;2112634;28;20042;-73
2020/12/19 02:26:39;;;;;;;13.20;9.95;;;8.80;69.50;;;;;;2103942;28;20024;-73
2020/12/19 02:27:40;;;;;;;13.60;10.30;;;8.80;69.40;;;;;;2104027;28;20065;-73
2020/12/19 02:28:41;;;;;;;14.40;9.43;;;8.80;69.50;;;;;;2112426;28;20019;-73
2020/12/19 02:29:41;;;;;;;13.27;9.60;;;8.80;69.50;;;;;;2104080;28;20183;-72
2020/12/19 02:30:42;;;;;;;14.13;9.98;;;8.80;69.50;;;;;;2095337;28;20020;-72
2020/12/19 02:31:44;;;;;;;13.88;9.50;;;8.80;69.50;;;;;;2103106;28;20020;-72
2020/12/19 02:32:46;;;;;;;13.32;9.85;;;8.80;69.60;;;;;;2112644;28;20015;-72
2020/12/19 02:33:46;;;;;;;14.05;9.77;;;8.80;69.50;;;;;;2113101;28;20035;-72
2020/12/19 02:34:47;;;;;;;13.93;9.90;;;8.80;69.60;;;;;;2112696;28;20114;-72
2020/12/19 02:35:47;;;;;;;13.02;9.80;;;8.80;69.60;;;;;;2112806;28;20027;-72
2020/12/19 02:36:48;;;;;;;14.02;9.75;;;8.80;69.60;;;;;;2113154;28;20030;-72
2020/12/19 02:37:49;;;;;;;16.40;10.13;;;8.80;69.70;;;;;;2111372;28;20066;-72
2020/12/19 02:38:49;;;;;;;14.45;10.32;;;8.70;69.70;;;;;;2111978;28;20042;-72
2020/12/19 02:39:50;;;;;;;14.07;9.98;;;8.70;69.70;;;;;;2113047;28;20023;-72
2020/12/19 02:40:50;;;;;;;15.02;10.02;;;8.80;69.80;;;;;;2112963;28;20024;-73
2020/12/19 02:41:51;;;;;;;12.93;9.85;;;8.70;69.70;;;;;;2104080;28;20028;-74
2020/12/19 02:42:52;;;;;;;14.27;10.32;;;8.70;69.70;;;;;;2095377;28;20024;-72
2020/12/19 02:43:54;;;;;;;15.63;10.23;;;8.70;69.80;;;;;;2104216;28;20105;-73
2020/12/19 02:44:55;;;;;;;12.98;9.85;;;8.70;69.80;;;;;;2100075;28;20050;-72
2020/12/19 02:45:56;;;;;;;15.27;10.25;;;8.70;69.90;;;;;;2100618;28;20039;-72
2020/12/19 02:46:56;;;;;;;14.48;9.95;;;8.70;69.90;;;;;;2112900;28;20023;-72
2020/12/19 02:47:57;;;;;;;14.80;10.93;;;8.70;69.90;;;;;;2112803;28;20023;-72
2020/12/19 02:48:58;;;;;;;16.13;10.35;;;8.70;70.00;;;;;;2112047;28;20054;-72
2020/12/19 02:49:58;;;;;;;12.75;9.98;;;8.70;70.00;;;;;;2112885;28;20028;-73
2020/12/19 02:50:59;;;;;;;14.32;10.38;;;8.70;70.10;;;;;;2101142;28;20489;-72
2020/12/19 02:51:59;;;;;;;15.07;10.98;;;8.70;70.10;;;;;;2101139;28;20097;-73
2020/12/19 02:53:00;;;;;;;15.98;10.57;;;8.70;70.20;;;;;;2112365;28;20035;-72
2020/12/19 02:54:00;;;;;;;17.60;10.90;;;8.70;70.20;;;;;;2113033;28;20035;-72
2020/12/19 02:55:01;;;;;;;18.77;10.88;;;8.70;70.20;;;;;;2112413;28;20081;-73
2020/12/19 02:56:01;;;;;;;15.68;9.55;;;8.70;70.20;;;;;;2112447;28;20341;-73
2020/12/19 02:57:02;;;;;;;15.00;10.20;;;8.70;70.20;;;;;;2112760;28;20092;-72
2020/12/19 02:58:02;;;;;;;17.15;10.48;;;8.70;70.20;;;;;;2113165;28;20035;-73
2020/12/19 02:59:03;;;;;;;16.63;9.98;;;8.70;70.20;;;;;;2112381;28;20402;-73
2020/12/19 03:00:05;;;;;;;16.73;10.07;;;8.70;70.20;;;;;;2113015;28;20105;-72
2020/12/19 03:01:05;;;;;;;13.98;10.10;;;8.70;70.20;;;;;;2111970;28;20093;-74
2020/12/19 03:02:06;;;;;;;12.68;9.07;;;8.70;70.20;;;;;;2112901;28;20449;-72
2020/12/19 03:03:06;;;;;;;13.95;10.13;;;8.70;70.20;;;;;;2112009;28;20069;-72
2020/12/19 03:04:07;;;;;;;13.63;9.45;;;8.70;70.20;;;;;;2112686;28;20049;-72
2020/12/19 03:05:08;;;;;;;14.25;9.93;;;8.70;70.20;;;;;;2113192;28;20024;-72
2020/12/19 03:06:09;;;;;;;14.23;9.85;;;8.70;70.20;;;;;;2103216;28;20024;-72
2020/12/19 03:07:10;;;;;;;13.80;9.63;;;8.70;70.20;;;;;;2104460;28;20035;-73
2020/12/19 03:08:10;;;;;;;12.63;9.63;;;8.70;70.20;;;;;;2112230;28;20022;-72
2020/12/19 03:09:11;;;;;;;13.90;9.57;;;8.70;70.20;;;;;;2111001;28;20020;-72
2020/12/19 03:10:11;;;;;;;11.18;8.85;;;8.70;70.20;;;;;;2100543;28;20035;-72
2020/12/19 03:11:12;;;;;;;13.73;9.85;;;8.70;70.20;;;;;;2099866;28;20020;-72
2020/12/19 03:12:13;;;;;;;12.63;9.18;;;8.70;70.20;;;;;;2112932;28;20063;-72
2020/12/19 03:13:13;;;;;;;15.25;9.40;;;8.70;70.20;;;;;;2103705;28;20607;-72
2020/12/19 03:14:14;;;;;;;13.20;10.20;;;8.70;70.20;;;;;;2103984;28;20034;-73
2020/12/19 03:15:14;;;;;;;11.80;8.25;;;8.70;70.20;;;;;;2112271;28;20508;-72
2020/12/19 03:16:15;;;;;;;13.93;9.70;;;8.70;70.20;;;;;;2111586;28;20515;-72
2020/12/19 03:17:16;;;;;;;12.65;9.35;;;8.70;70.10;;;;;;2113139;28;20460;-72
2020/12/19 03:18:16;;;;;;;14.90;9.45;;;8.70;70.20;;;;;;2112527;28;20028;-72
2020/12/19 03:19:17;;;;;;;13.77;9.88;;;8.70;70.10;;;;;;2112073;28;20092;-72
2020/12/19 03:20:17;;;;;;;14.95;9.55;;;8.70;70.00;;;;;;2111573;28;20099;-72
2020/12/19 03:21:18;;;;;;;12.73;9.68;;;8.70;70.10;;;;;;2112213;28;20060;-72
2020/12/19 03:22:19;;;;;;;15.00;10.05;;;8.60;70.00;;;;;;2113093;28;20033;-72
2020/12/19 03:23:19;;;;;;;13.98;9.57;;;8.60;70.00;;;;;;2112665;28;20024;-72
2020/12/19 03:24:20;;;;;;;13.40;9.63;;;8.60;70.00;;;;;;2112405;28;20024;-72
2020/12/19 03:25:20;;;;;;;12.93;9.60;;;8.60;70.00;;;;;;2113028;28;20722;-71
2020/12/19 03:26:21;;;;;;;13.35;9.68;;;8.60;70.20;;;;;;2112526;28;20024;-72
2020/12/19 03:27:21;;;;;;;14.63;9.40;;;8.60;70.20;;;;;;2113297;28;20076;-72
2020/12/19 03:28:22;;;;;;;15.02;9.65;;;8.60;70.20;;;;;;2112702;28;20035;-72
2020/12/19 03:29:22;;;;;;;13.30;9.82;;;8.60;70.20;;;;;;2111693;28;20446;-71
2020/12/19 03:30:24;;;;;;;14.90;9.82;;;8.60;70.10;;;;;;2112720;28;20515;-72
2020/12/19 03:31:24;;;;;;;13.23;9.13;;;8.60;70.20;;;;;;2112050;28;20019;-72
2020/12/19 03:32:25;;;;;;;11.82;9.65;;;8.60;70.20;;;;;;2112664;28;20354;-72
2020/12/19 03:33:25;;;;;;;12.65;8.70;;;8.60;70.20;;;;;;2112328;28;20116;-73
2020/12/19 03:34:26;;;;;;;12.65;9.68;;;8.60;70.30;;;;;;2111835;28;20033;-72
2020/12/19 03:35:27;;;;;;;14.65;10.10;;;8.60;70.30;;;;;;2113109;28;20046;-73
2020/12/19 03:36:27;;;;;;;12.52;9.45;;;8.60;70.30;;;;;;2111888;28;20045;-73
2020/12/19 03:37:28;;;;;;;15.10;10.30;;;8.60;70.40;;;;;;2112874;28;20059;-72
2020/12/19 03:38:28;;;;;;;15.93;10.07;;;8.60;70.50;;;;;;2111807;28;20036;-72
2020/12/19 03:39:29;;;;;;;13.98;10.32;;;8.60;70.60;;;;;;2112616;28;20024;-72
2020/12/19 03:40:30;;;;;;;14.30;9.73;;;8.60;70.60;;;;;;2112726;28;20027;-72
2020/12/19 03:41:30;;;;;;;15.30;10.43;;;8.60;70.60;;;;;;2103884;28;20095;-73
2020/12/19 03:42:31;;;;;;;14.27;10.23;;;8.60;70.70;;;;;;2103713;28;20066;-73
2020/12/19 03:43:31;;;;;;;14.88;9.63;;;8.60;70.80;;;;;;2113022;28;20031;-75
2020/12/19 03:44:32;;;;;;;14.20;9.40;;;8.60;70.80;;;;;;2112983;28;20027;-74
2020/12/19 03:45:32;;;;;;;14.48;9.68;;;8.60;70.80;;;;;;2112974;28;20144;-76
2020/12/19 03:46:33;;;;;;;14.60;10.13;;;8.60;70.80;;;;;;2112282;28;20110;-73
2020/12/19 03:47:34;;;;;;;13.55;9.90;;;8.60;70.80;;;;;;2112803;28;20098;-72
2020/12/19 03:48:34;;;;;;;17.70;9.90;;;8.60;70.80;;;;;;2111760;28;20026;-73
2020/12/19 03:49:35;;;;;;;14.60;9.70;;;8.60;70.80;;;;;;2104005;28;20008;-74
2020/12/19 03:50:35;;;;;;;14.20;10.15;;;8.60;70.70;;;;;;2102990;28;20058;-72
2020/12/19 03:51:36;;;;;;;11.65;9.43;;;8.60;70.70;;;;;;2112827;28;20028;-74
2020/12/19 03:52:37;;;;;;;13.85;10.00;;;8.60;70.70;;;;;;2111847;28;20027;-74
2020/12/19 03:53:38;;;;;;;17.00;10.45;;;8.60;70.80;;;;;;2112326;28;20074;-74
2020/12/19 03:54:38;;;;;;;13.75;9.38;;;8.60;70.80;;;;;;2103535;28;20028;-74
2020/12/19 03:55:39;;;;;;;14.63;9.52;;;8.60;70.80;;;;;;2104075;28;20035;-73
2020/12/19 03:56:39;;;;;;;15.90;10.50;;;8.60;70.80;;;;;;2112243;28;20043;-71
2020/12/19 03:57:40;;;;;;;13.00;9.63;;;8.60;70.90;;;;;;2103855;28;20465;-74
2020/12/19 03:58:41;;;;;;;17.80;10.55;;;8.60;70.90;;;;;;2103049;28;20580;-73
2020/12/19 03:59:42;;;;;;;15.35;10.30;;;8.60;70.90;;;;;;2112184;28;20019;-73
2020/12/19 04:00:43;;;;;;;14.07;10.60;;;8.60;70.80;;;;;;2112853;28;20039;-73
2020/12/19 04:01:43;;;;;;;12.00;9.50;;;8.60;71.60;;;;;;2112103;28;20035;-73
2020/12/19 04:02:44;;;;;;;14.45;10.13;;;8.50;70.90;;;;;;2112086;28;20422;-73
2020/12/19 04:03:44;;;;;;;14.82;10.73;;;8.50;70.90;;;;;;2112309;28;20347;-73
2020/12/19 04:04:45;;;;;;;15.68;10.32;;;8.60;71.00;;;;;;2111832;28;20376;-73
2020/12/19 04:05:45;;;;;;;14.90;9.82;;;8.60;71.00;;;;;;2111811;28;20665;-73
2020/12/19 04:06:46;;;;;;;15.25;9.48;;;8.60;71.00;;;;;;2112616;28;20028;-73
2020/12/19 04:07:47;;;;;;;15.10;9.85;;;8.60;70.90;;;;;;2112052;28;20075;-73
2020/12/19 04:08:47;;;;;;;13.70;9.88;;;8.60;71.30;;;;;;2112082;28;20451;-73
2020/12/19 04:09:48;;;;;;;15.13;9.88;;;8.60;70.90;;;;;;2112763;28;20024;-73
2020/12/19 04:10:48;;;;;;;14.13;10.32;;;8.50;70.90;;;;;;2111121;28;20028;-73
2020/12/19 04:11:49;;;;;;;14.32;10.00;;;8.50;70.80;;;;;;2112563;28;20055;-73
2020/12/19 04:12:49;;;;;;;11.27;8.90;;;8.50;70.80;;;;;;2112333;28;20019;-73
2020/12/19 04:13:50;;;;;;;13.25;10.20;;;8.50;70.80;;;;;;2112730;28;20488;-74
2020/12/19 04:14:50;;;;;;;12.15;9.38;;;8.50;70.70;;;;;;2103291;28;20020;-73
2020/12/19 04:15:51;;;;;;;15.55;10.10;;;8.50;70.80;;;;;;2102889;28;20044;-73
2020/12/19 04:16:51;;;;;;;15.10;9.85;;;8.50;70.70;;;;;;2111708;28;20020;-74
2020/12/19 04:17:53;;;;;;;14.18;9.60;;;8.50;70.70;;;;;;2112222;28;20015;-73
2020/12/19 04:18:53;;;;;;;12.63;9.20;;;8.50;70.70;;;;;;2111941;28;20024;-74
2020/12/19 04:19:54;;;;;;;10.88;9.18;;;8.50;70.70;;;;;;2112464;28;20032;-74
2020/12/19 04:20:54;;;;;;;11.50;8.48;;;8.50;70.70;;;;;;2110881;28;20043;-73
2020/12/19 04:21:55;;;;;;;10.07;8.45;;;8.50;70.70;;;;;;2112930;28;20146;-73
2020/12/19 04:22:56;;;;;;;15.13;9.75;;;8.50;70.70;;;;;;2102975;28;20028;-73
2020/12/19 04:23:56;;;;;;;13.85;10.10;;;8.50;70.70;;;;;;2103677;28;20024;-73
2020/12/19 04:24:57;;;;;;;11.98;9.50;;;8.50;70.70;;;;;;2111865;28;20469;-73
2020/12/19 04:25:59;;;;;;;15.60;10.38;;;8.50;70.70;;;;;;2102857;28;20490;-73
2020/12/19 04:27:00;;;;;;;12.05;9.25;;;8.50;70.70;;;;;;2103915;28;20031;-73
2020/12/19 04:28:01;;;;;;;12.82;9.13;;;8.50;70.70;;;;;;2113874;28;20369;-74
2020/12/19 04:29:01;;;;;;;13.95;9.27;;;8.50;70.70;;;;;;2113406;28;20102;-73
2020/12/19 04:30:07;;;;;;;11.55;9.13;;;8.50;70.70;;;;;;2114219;28;20028;-73
2020/12/19 04:31:08;;;;;;;14.65;9.70;;;8.50;70.70;;;;;;2113463;28;20436;-73
2020/12/19 04:32:09;;;;;;;12.57;9.57;;;8.50;70.70;;;;;;2113820;28;20042;-73
2020/12/19 04:33:10;;;;;;;13.68;9.32;;;8.50;70.70;;;;;;2113764;28;20016;-73
2020/12/19 04:34:10;;;;;;;15.25;10.63;;;8.50;70.70;;;;;;2113387;28;20032;-73
2020/12/19 04:35:11;;;;;;;13.93;10.05;;;8.50;70.80;;;;;;2113649;28;20023;-73
2020/12/19 04:36:11;;;;;;;12.70;9.50;;;8.50;70.80;;;;;;2113714;28;20068;-73
2020/12/19 04:37:12;;;;;;;12.98;9.82;;;8.40;70.70;;;;;;2113809;28;20028;-74
2020/12/19 04:38:13;;;;;;;13.73;9.27;;;8.50;70.80;;;;;;2114308;28;20154;-73
2020/12/19 04:39:14;;;;;;;15.57;10.27;;;8.50;70.90;;;;;;2103379;28;20024;-73
2020/12/19 04:40:15;;;;;;;13.10;9.43;;;8.50;70.90;;;;;;2105007;28;20059;-74
2020/12/19 04:41:16;;;;;;;15.05;10.32;;;8.50;70.90;;;;;;2113893;28;20023;-73
2020/12/19 04:42:16;;;;;;;15.13;10.02;;;8.40;70.90;;;;;;2114077;28;20032;-72
2020/12/19 04:43:19;;;;;;;13.15;9.80;;;8.40;70.90;;;;;;2113789;28;20051;-74
2020/12/19 04:44:21;;;;;;;13.10;10.15;;;8.40;71.00;;;;;;2113215;28;20415;-73
2020/12/19 04:45:21;;;;;;;17.05;10.23;;;8.40;70.90;;;;;;2114154;28;20023;-74
2020/12/19 04:46:22;;;;;;;12.45;9.30;;;8.40;71.00;;;;;;2113392;28;20024;-73
2020/12/19 04:47:23;;;;;;;12.75;9.98;;;8.40;71.00;;;;;;2113592;28;20032;-73
2020/12/19 04:48:24;;;;;;;13.75;10.35;;;8.40;71.00;;;;;;2113649;28;20364;-73
2020/12/19 04:49:25;;;;;;;15.23;10.40;;;8.40;71.10;;;;;;2113540;28;20024;-73
2020/12/19 04:50:26;;;;;;;14.60;10.07;;;8.40;71.20;;;;;;2113686;28;20110;-73
2020/12/19 04:51:28;;;;;;;13.93;10.00;;;8.40;71.20;;;;;;2104914;28;20028;-73
2020/12/19 04:52:28;;;;;;;13.23;10.48;;;8.40;71.20;;;;;;2105012;28;20037;-73
2020/12/19 04:53:29;;;;;;;12.52;9.95;;;8.40;71.30;;;;;;2112852;28;20161;-73
2020/12/19 04:54:30;;;;;;;13.63;9.85;;;8.40;71.40;;;;;;2113341;28;20106;-73
2020/12/19 04:55:30;;;;;;;17.17;10.55;;;8.40;71.40;;;;;;2104737;28;20035;-74
2020/12/19 04:56:31;;;;;;;14.15;10.38;;;8.40;71.40;;;;;;2105318;28;20024;-73
2020/12/19 04:57:34;;;;;;;17.38;10.55;;;8.40;71.50;;;;;;2113537;28;20428;-73
2020/12/19 04:58:34;;;;;;;15.18;10.70;;;8.40;71.50;;;;;;2113096;28;20027;-73
2020/12/19 04:59:35;;;;;;;13.88;9.98;;;8.40;71.50;;;;;;2113186;28;20080;-73
2020/12/19 05:00:35;;;;;;;15.43;10.23;;;8.40;71.50;;;;;;2113380;28;20035;-73
2020/12/19 05:01:36;;;;;;;17.13;11.27;;;8.50;71.60;;;;;;2113051;28;20474;-73
2020/12/19 05:02:36;;;;;;;17.75;11.35;;;8.50;71.60;;;;;;2104918;28;20031;-73
2020/12/19 05:03:38;;;;;;;16.73;11.52;;;8.40;71.60;;;;;;2104693;28;20043;-73
2020/12/19 05:04:41;;;;;;;23.17;11.65;;;8.50;71.80;;;;;;2113814;28;20042;-74
2020/12/19 05:05:43;;;;;;;16.27;10.90;;;8.50;71.90;;;;;;2093544;28;20032;-73
2020/12/19 05:06:46;;;;;;;15.15;10.90;;;8.50;71.90;;;;;;2085479;28;20029;-73
2020/12/19 05:07:47;;;;;;;14.57;10.73;;;8.50;71.90;;;;;;2109134;28;20513;-73
2020/12/19 05:08:48;;;;;;;18.58;11.23;;;8.50;71.90;;;;;;2119341;27;20031;-73
2020/12/19 05:09:49;;;;;;;14.52;10.43;;;8.50;71.90;;;;;;2112909;28;20461;-73
2020/12/19 05:10:49;;;;;;;15.40;11.23;;;8.50;71.90;;;;;;2113025;28;20027;-73
2020/12/19 05:11:51;;;;;;;14.93;10.95;;;8.50;71.90;;;;;;2114037;28;20015;-73
2020/12/19 05:12:55;;;;;;;16.85;11.27;;;8.50;71.90;;;;;;2104257;28;20513;-73
2020/12/19 05:13:55;;;;;;;15.90;11.18;;;8.50;71.90;;;;;;2097108;28;20028;-73
2020/12/19 05:14:56;;;;;;;17.42;11.25;;;8.50;72.00;;;;;;2104875;28;20367;-73
2020/12/19 05:15:57;;;;;;;14.35;10.88;;;8.50;71.90;;;;;;2113091;28;20377;-74